sensor_id;sensor_type;location;lat;lon;timestamp;P1;durP1;ratioP1;P2;durP2;ratioP2
18159;SDS011;9205;52.032;4.314;2022-08-21T00:01:33;8.23;;;1.80;;
18159;SDS011;9205;52.032;4.314;2022-08-21T00:04:03;2.37;;;1.30;;
18159;SDS011;9205;52.032;4.314;2022-08-21T00:06:33;2.23;;;1.30;;
18159;SDS011;9205;52.032;4.314;2022-08-21T00:09:11;4.60;;;1.30;;
18159;SDS011;9205;52.032;4.314;2022-08-21T00:11:38;2.37;;;1.30;;
18159;SDS011;9205;52.032;4.314;2022-08-21T00:14:07;3.67;;;1.40;;
18159;SDS011;9205;52.032;4.314;2022-08-21T00:16:36;3.53;;;1.30;;
18159;SDS011;9205;52.032;4.314;2022-08-21T00:19:05;2.13;;;1.30;;
18159;SDS011;9205;52.032;4.314;2022-08-21T00:21:35;4.50;;;1.63;;
18159;SDS011;9205;52.032;4.314;2022-08-21T00:24:03;2.17;;;1.60;;
18159;SDS011;9205;52.032;4.314;2022-08-21T00:26:31;1.87;;;1.30;;
18159;SDS011;9205;52.032;4.314;2022-08-21T00:28:59;3.57;;;1.43;;
18159;SDS011;9205;52.032;4.314;2022-08-21T00:31:26;2.40;;;1.37;;
18159;SDS011;9205;52.032;4.314;2022-08-21T00:33:53;4.90;;;1.20;;
18159;SDS011;9205;52.032;4.314;2022-08-21T00:36:20;3.77;;;1.40;;
18159;SDS011;9205;52.032;4.314;2022-08-21T00:38:49;3.67;;;1.40;;
18159;SDS011;9205;52.032;4.314;2022-08-21T00:41:16;3.07;;;1.23;;
18159;SDS011;9205;52.032;4.314;2022-08-21T00:43:43;4.47;;;1.47;;
18159;SDS011;9205;52.032;4.314;2022-08-21T00:46:10;3.53;;;1.20;;
18159;SDS011;9205;52.032;4.314;2022-08-21T00:48:38;1.80;;;1.17;;
18159;SDS011;9205;52.032;4.314;2022-08-21T00:51:06;2.80;;;1.30;;
18159;SDS011;9205;52.032;4.314;2022-08-21T00:53:40;3.67;;;1.13;;
18159;SDS011;9205;52.032;4.314;2022-08-21T00:56:12;4.63;;;1.40;;
18159;SDS011;9205;52.032;4.314;2022-08-21T00:58:40;4.50;;;1.30;;
18159;SDS011;9205;52.032;4.314;2022-08-21T01:01:09;4.70;;;1.30;;
18159;SDS011;9205;52.032;4.314;2022-08-21T01:03:36;2.03;;;1.23;;
18159;SDS011;9205;52.032;4.314;2022-08-21T01:06:04;3.70;;;1.40;;
18159;SDS011;9205;52.032;4.314;2022-08-21T01:08:34;1.33;;;1.17;;
18159;SDS011;9205;52.032;4.314;2022-08-21T01:11:03;4.30;;;1.47;;
18159;SDS011;9205;52.032;4.314;2022-08-21T01:13:34;3.10;;;1.63;;
18159;SDS011;9205;52.032;4.314;2022-08-21T01:16:10;6.53;;;1.60;;
18159;SDS011;9205;52.032;4.314;2022-08-21T01:18:42;3.10;;;1.50;;
18159;SDS011;9205;52.032;4.314;2022-08-21T01:21:12;1.60;;;1.30;;
18159;SDS011;9205;52.032;4.314;2022-08-21T01:23:46;2.77;;;1.33;;
18159;SDS011;9205;52.032;4.314;2022-08-21T01:26:18;3.00;;;1.43;;
18159;SDS011;9205;52.032;4.314;2022-08-21T01:28:52;4.00;;;1.57;;
18159;SDS011;9205;52.032;4.314;2022-08-21T01:31:27;4.63;;;1.70;;
18159;SDS011;9205;52.032;4.314;2022-08-21T01:33:58;2.93;;;1.50;;
18159;SDS011;9205;52.032;4.314;2022-08-21T01:36:28;3.80;;;1.70;;
18159;SDS011;9205;52.032;4.314;2022-08-21T01:38:56;3.40;;;1.43;;
18159;SDS011;9205;52.032;4.314;2022-08-21T01:41:24;3.03;;;1.30;;
18159;SDS011;9205;52.032;4.314;2022-08-21T01:43:51;5.13;;;1.37;;
18159;SDS011;9205;52.032;4.314;2022-08-21T01:46:18;3.00;;;1.10;;
18159;SDS011;9205;52.032;4.314;2022-08-21T01:48:45;3.20;;;1.50;;
18159;SDS011;9205;52.032;4.314;2022-08-21T01:51:12;4.00;;;1.50;;
18159;SDS011;9205;52.032;4.314;2022-08-21T01:53:41;3.07;;;1.80;;
18159;SDS011;9205;52.032;4.314;2022-08-21T01:56:09;3.40;;;1.27;;
18159;SDS011;9205;52.032;4.314;2022-08-21T01:58:41;2.60;;;1.23;;
18159;SDS011;9205;52.032;4.314;2022-08-21T02:01:12;1.80;;;1.07;;
18159;SDS011;9205;52.032;4.314;2022-08-21T02:03:40;3.70;;;1.20;;
18159;SDS011;9205;52.032;4.314;2022-08-21T02:06:11;3.60;;;1.30;;
18159;SDS011;9205;52.032;4.314;2022-08-21T02:08:44;5.33;;;1.47;;
18159;SDS011;9205;52.032;4.314;2022-08-21T02:11:12;2.30;;;1.30;;
18159;SDS011;9205;52.032;4.314;2022-08-21T02:13:40;3.50;;;1.10;;
18159;SDS011;9205;52.032;4.314;2022-08-21T02:16:07;2.23;;;1.17;;
18159;SDS011;9205;52.032;4.314;2022-08-21T02:18:35;2.87;;;1.20;;
18159;SDS011;9205;52.032;4.314;2022-08-21T02:21:03;3.33;;;1.10;;
18159;SDS011;9205;52.032;4.314;2022-08-21T02:23:31;2.77;;;1.23;;
18159;SDS011;9205;52.032;4.314;2022-08-21T02:26:01;1.67;;;0.87;;
18159;SDS011;9205;52.032;4.314;2022-08-21T02:28:32;1.27;;;1.07;;
18159;SDS011;9205;52.032;4.314;2022-08-21T02:30:59;3.97;;;1.40;;
18159;SDS011;9205;52.032;4.314;2022-08-21T02:33:27;2.57;;;1.17;;
18159;SDS011;9205;52.032;4.314;2022-08-21T02:35:55;3.13;;;1.20;;
18159;SDS011;9205;52.032;4.314;2022-08-21T02:38:25;3.00;;;1.30;;
18159;SDS011;9205;52.032;4.314;2022-08-21T02:40:56;2.63;;;1.10;;
18159;SDS011;9205;52.032;4.314;2022-08-21T02:43:26;2.57;;;1.13;;
18159;SDS011;9205;52.032;4.314;2022-08-21T02:45:54;4.10;;;1.10;;
18159;SDS011;9205;52.032;4.314;2022-08-21T02:48:24;2.37;;;1.50;;
18159;SDS011;9205;52.032;4.314;2022-08-21T02:50:55;2.27;;;1.10;;
18159;SDS011;9205;52.032;4.314;2022-08-21T02:53:25;1.67;;;1.20;;
18159;SDS011;9205;52.032;4.314;2022-08-21T02:55:54;2.20;;;1.30;;
18159;SDS011;9205;52.032;4.314;2022-08-21T02:58:26;3.37;;;1.20;;
18159;SDS011;9205;52.032;4.314;2022-08-21T03:00:57;3.33;;;1.37;;
18159;SDS011;9205;52.032;4.314;2022-08-21T03:03:25;4.43;;;1.33;;
18159;SDS011;9205;52.032;4.314;2022-08-21T03:05:53;5.73;;;1.50;;
18159;SDS011;9205;52.032;4.314;2022-08-21T03:08:21;2.83;;;1.30;;
18159;SDS011;9205;52.032;4.314;2022-08-21T03:10:50;3.57;;;1.43;;
18159;SDS011;9205;52.032;4.314;2022-08-21T03:13:19;3.67;;;1.80;;
18159;SDS011;9205;52.032;4.314;2022-08-21T03:15:49;3.40;;;1.83;;
18159;SDS011;9205;52.032;4.314;2022-08-21T03:18:16;5.00;;;2.03;;
18159;SDS011;9205;52.032;4.314;2022-08-21T03:20:45;4.40;;;2.40;;
18159;SDS011;9205;52.032;4.314;2022-08-21T03:23:13;5.93;;;2.40;;
18159;SDS011;9205;52.032;4.314;2022-08-21T03:25:43;6.40;;;2.70;;
18159;SDS011;9205;52.032;4.314;2022-08-21T03:28:13;5.73;;;2.50;;
18159;SDS011;9205;52.032;4.314;2022-08-21T03:30:43;5.47;;;2.50;;
18159;SDS011;9205;52.032;4.314;2022-08-21T03:33:15;7.63;;;2.80;;
18159;SDS011;9205;52.032;4.314;2022-08-21T03:35:44;6.03;;;2.40;;
18159;SDS011;9205;52.032;4.314;2022-08-21T03:38:26;7.77;;;2.33;;
18159;SDS011;9205;52.032;4.314;2022-08-21T03:40:55;5.87;;;2.70;;
18159;SDS011;9205;52.032;4.314;2022-08-21T03:43:23;4.93;;;2.13;;
18159;SDS011;9205;52.032;4.314;2022-08-21T03:45:50;4.30;;;2.33;;
18159;SDS011;9205;52.032;4.314;2022-08-21T03:48:19;3.87;;;1.73;;
18159;SDS011;9205;52.032;4.314;2022-08-21T03:50:46;4.37;;;2.00;;
18159;SDS011;9205;52.032;4.314;2022-08-21T03:53:15;5.60;;;2.23;;
18159;SDS011;9205;52.032;4.314;2022-08-21T03:55:43;5.50;;;2.43;;
18159;SDS011;9205;52.032;4.314;2022-08-21T03:58:12;5.57;;;2.40;;
18159;SDS011;9205;52.032;4.314;2022-08-21T04:00:39;5.03;;;2.30;;
18159;SDS011;9205;52.032;4.314;2022-08-21T04:03:06;6.43;;;2.67;;
18159;SDS011;9205;52.032;4.314;2022-08-21T04:05:35;7.37;;;3.00;;
18159;SDS011;9205;52.032;4.314;2022-08-21T04:08:03;8.50;;;2.53;;
18159;SDS011;9205;52.032;4.314;2022-08-21T04:10:32;4.47;;;2.30;;
18159;SDS011;9205;52.032;4.314;2022-08-21T04:13:03;6.30;;;2.50;;
18159;SDS011;9205;52.032;4.314;2022-08-21T04:15:32;4.43;;;1.70;;
18159;SDS011;9205;52.032;4.314;2022-08-21T04:18:00;4.83;;;2.00;;
18159;SDS011;9205;52.032;4.314;2022-08-21T04:20:30;5.93;;;2.23;;
18159;SDS011;9205;52.032;4.314;2022-08-21T04:22:58;4.90;;;2.20;;
18159;SDS011;9205;52.032;4.314;2022-08-21T04:25:26;5.97;;;2.10;;
18159;SDS011;9205;52.032;4.314;2022-08-21T04:27:53;2.77;;;1.80;;
18159;SDS011;9205;52.032;4.314;2022-08-21T04:30:21;4.63;;;1.97;;
18159;SDS011;9205;52.032;4.314;2022-08-21T04:32:49;3.07;;;1.90;;
18159;SDS011;9205;52.032;4.314;2022-08-21T04:35:18;4.07;;;1.97;;
18159;SDS011;9205;52.032;4.314;2022-08-21T04:37:48;2.53;;;1.57;;
18159;SDS011;9205;52.032;4.314;2022-08-21T04:40:17;4.83;;;2.07;;
18159;SDS011;9205;52.032;4.314;2022-08-21T04:42:47;3.60;;;1.47;;
18159;SDS011;9205;52.032;4.314;2022-08-21T04:45:17;2.93;;;1.57;;
18159;SDS011;9205;52.032;4.314;2022-08-21T04:47:48;2.23;;;1.50;;
18159;SDS011;9205;52.032;4.314;2022-08-21T04:50:17;5.93;;;2.00;;
18159;SDS011;9205;52.032;4.314;2022-08-21T04:53:02;4.80;;;1.80;;
18159;SDS011;9205;52.032;4.314;2022-08-21T04:55:31;7.03;;;2.33;;
18159;SDS011;9205;52.032;4.314;2022-08-21T04:57:59;4.27;;;1.67;;
18159;SDS011;9205;52.032;4.314;2022-08-21T05:00:27;3.53;;;1.77;;
18159;SDS011;9205;52.032;4.314;2022-08-21T05:02:54;4.23;;;1.83;;
18159;SDS011;9205;52.032;4.314;2022-08-21T05:05:24;5.87;;;2.00;;
18159;SDS011;9205;52.032;4.314;2022-08-21T05:07:54;4.77;;;1.83;;
18159;SDS011;9205;52.032;4.314;2022-08-21T05:10:24;4.77;;;1.77;;
18159;SDS011;9205;52.032;4.314;2022-08-21T05:12:53;2.90;;;1.77;;
18159;SDS011;9205;52.032;4.314;2022-08-21T05:15:21;7.03;;;2.53;;
18159;SDS011;9205;52.032;4.314;2022-08-21T05:17:48;5.60;;;2.00;;
18159;SDS011;9205;52.032;4.314;2022-08-21T05:20:16;4.00;;;1.83;;
18159;SDS011;9205;52.032;4.314;2022-08-21T05:22:43;2.67;;;1.60;;
18159;SDS011;9205;52.032;4.314;2022-08-21T05:25:10;4.57;;;2.07;;
18159;SDS011;9205;52.032;4.314;2022-08-21T05:27:38;5.67;;;1.97;;
18159;SDS011;9205;52.032;4.314;2022-08-21T05:30:07;5.40;;;2.07;;
18159;SDS011;9205;52.032;4.314;2022-08-21T05:32:36;3.13;;;1.73;;
18159;SDS011;9205;52.032;4.314;2022-08-21T05:35:04;8.90;;;1.83;;
18159;SDS011;9205;52.032;4.314;2022-08-21T05:37:33;5.10;;;2.00;;
18159;SDS011;9205;52.032;4.314;2022-08-21T05:40:02;4.63;;;2.00;;
18159;SDS011;9205;52.032;4.314;2022-08-21T05:42:31;3.07;;;1.80;;
18159;SDS011;9205;52.032;4.314;2022-08-21T05:44:59;4.10;;;2.10;;
18159;SDS011;9205;52.032;4.314;2022-08-21T05:47:27;4.40;;;2.10;;
18159;SDS011;9205;52.032;4.314;2022-08-21T05:49:54;4.70;;;2.40;;
18159;SDS011;9205;52.032;4.314;2022-08-21T05:52:22;4.77;;;2.10;;
18159;SDS011;9205;52.032;4.314;2022-08-21T05:54:49;3.67;;;1.90;;
18159;SDS011;9205;52.032;4.314;2022-08-21T05:57:19;6.03;;;2.27;;
18159;SDS011;9205;52.032;4.314;2022-08-21T05:59:46;4.80;;;1.90;;
18159;SDS011;9205;52.032;4.314;2022-08-21T06:02:14;6.03;;;2.50;;
18159;SDS011;9205;52.032;4.314;2022-08-21T06:04:45;6.07;;;2.33;;
18159;SDS011;9205;52.032;4.314;2022-08-21T06:07:14;4.40;;;2.27;;
18159;SDS011;9205;52.032;4.314;2022-08-21T06:09:41;4.97;;;2.57;;
18159;SDS011;9205;52.032;4.314;2022-08-21T06:12:10;7.17;;;2.40;;
18159;SDS011;9205;52.032;4.314;2022-08-21T06:14:39;7.13;;;2.00;;
18159;SDS011;9205;52.032;4.314;2022-08-21T06:17:08;4.37;;;2.40;;
18159;SDS011;9205;52.032;4.314;2022-08-21T06:19:41;3.70;;;2.07;;
18159;SDS011;9205;52.032;4.314;2022-08-21T06:22:12;5.30;;;2.10;;
18159;SDS011;9205;52.032;4.314;2022-08-21T06:24:39;7.17;;;2.20;;
18159;SDS011;9205;52.032;4.314;2022-08-21T06:27:06;9.30;;;2.63;;
18159;SDS011;9205;52.032;4.314;2022-08-21T06:29:34;7.00;;;2.97;;
18159;SDS011;9205;52.032;4.314;2022-08-21T06:32:02;9.03;;;2.60;;
18159;SDS011;9205;52.032;4.314;2022-08-21T06:34:31;4.60;;;2.13;;
18159;SDS011;9205;52.032;4.314;2022-08-21T06:37:03;3.90;;;2.13;;
18159;SDS011;9205;52.032;4.314;2022-08-21T06:39:32;4.87;;;2.17;;
18159;SDS011;9205;52.032;4.314;2022-08-21T06:41:59;6.80;;;2.23;;
18159;SDS011;9205;52.032;4.314;2022-08-21T06:44:27;4.37;;;2.00;;
18159;SDS011;9205;52.032;4.314;2022-08-21T06:46:55;7.63;;;1.97;;
18159;SDS011;9205;52.032;4.314;2022-08-21T06:49:22;6.00;;;2.03;;
18159;SDS011;9205;52.032;4.314;2022-08-21T06:51:50;7.67;;;2.00;;
18159;SDS011;9205;52.032;4.314;2022-08-21T06:54:17;3.57;;;2.10;;
18159;SDS011;9205;52.032;4.314;2022-08-21T06:56:45;9.67;;;2.20;;
18159;SDS011;9205;52.032;4.314;2022-08-21T06:59:15;5.50;;;2.00;;
18159;SDS011;9205;52.032;4.314;2022-08-21T07:01:42;4.67;;;2.10;;
18159;SDS011;9205;52.032;4.314;2022-08-21T07:04:10;4.73;;;2.00;;
18159;SDS011;9205;52.032;4.314;2022-08-21T07:06:37;6.50;;;2.10;;
18159;SDS011;9205;52.032;4.314;2022-08-21T07:09:07;5.53;;;2.10;;
18159;SDS011;9205;52.032;4.314;2022-08-21T07:11:35;5.87;;;1.80;;
18159;SDS011;9205;52.032;4.314;2022-08-21T07:14:05;3.93;;;2.10;;
18159;SDS011;9205;52.032;4.314;2022-08-21T07:16:33;7.03;;;2.33;;
18159;SDS011;9205;52.032;4.314;2022-08-21T07:19:00;5.40;;;2.13;;
18159;SDS011;9205;52.032;4.314;2022-08-21T07:21:27;7.13;;;3.67;;
18159;SDS011;9205;52.032;4.314;2022-08-21T07:23:54;6.93;;;2.20;;
18159;SDS011;9205;52.032;4.314;2022-08-21T07:26:22;4.27;;;2.00;;
18159;SDS011;9205;52.032;4.314;2022-08-21T07:28:51;3.90;;;2.10;;
18159;SDS011;9205;52.032;4.314;2022-08-21T07:31:21;3.87;;;1.67;;
18159;SDS011;9205;52.032;4.314;2022-08-21T07:33:51;4.33;;;1.90;;
18159;SDS011;9205;52.032;4.314;2022-08-21T07:36:19;2.33;;;1.70;;
18159;SDS011;9205;52.032;4.314;2022-08-21T07:38:46;3.47;;;1.60;;
18159;SDS011;9205;52.032;4.314;2022-08-21T07:41:14;5.17;;;1.90;;
18159;SDS011;9205;52.032;4.314;2022-08-21T07:43:47;2.60;;;1.73;;
18159;SDS011;9205;52.032;4.314;2022-08-21T07:46:14;5.13;;;1.97;;
18159;SDS011;9205;52.032;4.314;2022-08-21T07:48:43;5.20;;;1.80;;
18159;SDS011;9205;52.032;4.314;2022-08-21T07:51:11;2.93;;;1.50;;
18159;SDS011;9205;52.032;4.314;2022-08-21T07:53:41;4.40;;;1.60;;
18159;SDS011;9205;52.032;4.314;2022-08-21T07:56:13;4.73;;;1.60;;
18159;SDS011;9205;52.032;4.314;2022-08-21T07:58:40;2.47;;;1.57;;
18159;SDS011;9205;52.032;4.314;2022-08-21T08:01:08;4.97;;;1.60;;
18159;SDS011;9205;52.032;4.314;2022-08-21T08:03:35;3.77;;;1.50;;
18159;SDS011;9205;52.032;4.314;2022-08-21T08:06:05;4.70;;;1.70;;
18159;SDS011;9205;52.032;4.314;2022-08-21T08:08:37;3.37;;;1.43;;
18159;SDS011;9205;52.032;4.314;2022-08-21T08:11:05;6.97;;;1.60;;
18159;SDS011;9205;52.032;4.314;2022-08-21T08:13:37;3.93;;;1.67;;
18159;SDS011;9205;52.032;4.314;2022-08-21T08:16:06;3.20;;;1.33;;
18159;SDS011;9205;52.032;4.314;2022-08-21T08:18:34;2.07;;;1.20;;
18159;SDS011;9205;52.032;4.314;2022-08-21T08:21:01;4.20;;;1.30;;
18159;SDS011;9205;52.032;4.314;2022-08-21T08:23:31;3.67;;;1.30;;
18159;SDS011;9205;52.032;4.314;2022-08-21T08:25:59;3.20;;;1.30;;
18159;SDS011;9205;52.032;4.314;2022-08-21T08:28:28;4.03;;;1.50;;
18159;SDS011;9205;52.032;4.314;2022-08-21T08:30:56;3.80;;;1.20;;
18159;SDS011;9205;52.032;4.314;2022-08-21T08:33:25;2.27;;;0.90;;
18159;SDS011;9205;52.032;4.314;2022-08-21T08:35:52;2.77;;;1.00;;
18159;SDS011;9205;52.032;4.314;2022-08-21T08:38:21;3.67;;;1.40;;
18159;SDS011;9205;52.032;4.314;2022-08-21T08:40:54;1.77;;;0.87;;
18159;SDS011;9205;52.032;4.314;2022-08-21T08:43:28;1.27;;;0.93;;
18159;SDS011;9205;52.032;4.314;2022-08-21T08:46:01;2.17;;;0.73;;
18159;SDS011;9205;52.032;4.314;2022-08-21T08:48:39;2.43;;;0.90;;
18159;SDS011;9205;52.032;4.314;2022-08-21T08:51:17;2.30;;;1.07;;
18159;SDS011;9205;52.032;4.314;2022-08-21T08:53:52;1.97;;;0.87;;
18159;SDS011;9205;52.032;4.314;2022-08-21T08:56:28;0.90;;;0.80;;
18159;SDS011;9205;52.032;4.314;2022-08-21T08:59:00;2.97;;;0.90;;
18159;SDS011;9205;52.032;4.314;2022-08-21T09:01:34;4.00;;;1.20;;
18159;SDS011;9205;52.032;4.314;2022-08-21T09:04:02;4.77;;;1.10;;
18159;SDS011;9205;52.032;4.314;2022-08-21T09:06:44;1.97;;;0.77;;
18159;SDS011;9205;52.032;4.314;2022-08-21T09:09:33;2.83;;;1.00;;
18159;SDS011;9205;52.032;4.314;2022-08-21T09:12:16;2.17;;;1.10;;
18159;SDS011;9205;52.032;4.314;2022-08-21T09:15:02;2.80;;;1.17;;
18159;SDS011;9205;52.032;4.314;2022-08-21T09:17:46;2.70;;;1.07;;
18159;SDS011;9205;52.032;4.314;2022-08-21T09:20:38;3.00;;;1.00;;
18159;SDS011;9205;52.032;4.314;2022-08-21T09:23:22;3.40;;;1.10;;
18159;SDS011;9205;52.032;4.314;2022-08-21T09:26:05;3.27;;;1.13;;
18159;SDS011;9205;52.032;4.314;2022-08-21T09:28:40;2.73;;;0.93;;
18159;SDS011;9205;52.032;4.314;2022-08-21T09:31:11;3.17;;;1.00;;
18159;SDS011;9205;52.032;4.314;2022-08-21T09:33:48;1.37;;;0.80;;
18159;SDS011;9205;52.032;4.314;2022-08-21T09:36:22;2.60;;;0.70;;
18159;SDS011;9205;52.032;4.314;2022-08-21T09:39:07;3.80;;;0.90;;
18159;SDS011;9205;52.032;4.314;2022-08-21T09:41:39;2.03;;;0.93;;
18159;SDS011;9205;52.032;4.314;2022-08-21T09:44:08;2.33;;;1.10;;
18159;SDS011;9205;52.032;4.314;2022-08-21T09:46:35;3.10;;;1.10;;
18159;SDS011;9205;52.032;4.314;2022-08-21T09:49:03;1.80;;;0.90;;
18159;SDS011;9205;52.032;4.314;2022-08-21T09:51:31;2.17;;;1.00;;
18159;SDS011;9205;52.032;4.314;2022-08-21T09:54:10;1.90;;;1.20;;
18159;SDS011;9205;52.032;4.314;2022-08-21T09:56:52;2.53;;;1.00;;
18159;SDS011;9205;52.032;4.314;2022-08-21T09:59:42;2.80;;;0.90;;
18159;SDS011;9205;52.032;4.314;2022-08-21T10:02:21;4.77;;;1.10;;
18159;SDS011;9205;52.032;4.314;2022-08-21T10:04:54;2.67;;;1.00;;
18159;SDS011;9205;52.032;4.314;2022-08-21T10:07:28;1.73;;;1.00;;
18159;SDS011;9205;52.032;4.314;2022-08-21T10:09:59;4.30;;;1.10;;
18159;SDS011;9205;52.032;4.314;2022-08-21T10:12:33;1.97;;;1.10;;
18159;SDS011;9205;52.032;4.314;2022-08-21T10:15:15;1.93;;;0.90;;
18159;SDS011;9205;52.032;4.314;2022-08-21T10:17:57;2.90;;;1.13;;
18159;SDS011;9205;52.032;4.314;2022-08-21T10:20:40;3.53;;;0.90;;
18159;SDS011;9205;52.032;4.314;2022-08-21T10:23:30;5.77;;;1.20;;
18159;SDS011;9205;52.032;4.314;2022-08-21T10:26:20;2.17;;;1.00;;
18159;SDS011;9205;52.032;4.314;2022-08-21T10:29:03;1.60;;;1.00;;
18159;SDS011;9205;52.032;4.314;2022-08-21T10:31:45;1.90;;;0.97;;
18159;SDS011;9205;52.032;4.314;2022-08-21T10:34:29;1.33;;;1.00;;
18159;SDS011;9205;52.032;4.314;2022-08-21T10:37:14;1.10;;;0.80;;
18159;SDS011;9205;52.032;4.314;2022-08-21T10:40:02;2.50;;;1.00;;
18159;SDS011;9205;52.032;4.314;2022-08-21T10:42:46;1.20;;;0.80;;
18159;SDS011;9205;52.032;4.314;2022-08-21T10:45:36;2.67;;;1.20;;
18159;SDS011;9205;52.032;4.314;2022-08-21T10:48:18;0.97;;;0.83;;
18159;SDS011;9205;52.032;4.314;2022-08-21T10:50:55;0.90;;;0.70;;
18159;SDS011;9205;52.032;4.314;2022-08-21T10:53:45;3.00;;;0.80;;
18159;SDS011;9205;52.032;4.314;2022-08-21T10:56:26;2.60;;;1.30;;
18159;SDS011;9205;52.032;4.314;2022-08-21T10:59:09;1.93;;;1.00;;
18159;SDS011;9205;52.032;4.314;2022-08-21T11:01:53;1.80;;;0.83;;
18159;SDS011;9205;52.032;4.314;2022-08-21T11:04:30;2.33;;;1.00;;
18159;SDS011;9205;52.032;4.314;2022-08-21T11:07:03;3.03;;;0.70;;
18159;SDS011;9205;52.032;4.314;2022-08-21T11:09:39;7.63;;;0.80;;
18159;SDS011;9205;52.032;4.314;2022-08-21T11:12:15;2.87;;;1.10;;
18159;SDS011;9205;52.032;4.314;2022-08-21T11:14:53;3.87;;;1.00;;
18159;SDS011;9205;52.032;4.314;2022-08-21T11:17:30;1.07;;;0.70;;
18159;SDS011;9205;52.032;4.314;2022-08-21T11:20:07;2.53;;;0.90;;
18159;SDS011;9205;52.032;4.314;2022-08-21T11:22:44;1.53;;;0.70;;
18159;SDS011;9205;52.032;4.314;2022-08-21T11:25:21;1.70;;;0.90;;
18159;SDS011;9205;52.032;4.314;2022-08-21T11:27:58;1.53;;;0.70;;
18159;SDS011;9205;52.032;4.314;2022-08-21T11:30:33;3.73;;;1.00;;
18159;SDS011;9205;52.032;4.314;2022-08-21T11:33:22;2.17;;;0.70;;
18159;SDS011;9205;52.032;4.314;2022-08-21T11:36:12;3.00;;;0.90;;
18159;SDS011;9205;52.032;4.314;2022-08-21T11:38:51;2.50;;;0.93;;
18159;SDS011;9205;52.032;4.314;2022-08-21T11:41:30;1.40;;;0.80;;
18159;SDS011;9205;52.032;4.314;2022-08-21T11:44:09;0.70;;;0.60;;
18159;SDS011;9205;52.032;4.314;2022-08-21T11:46:49;1.70;;;0.80;;
18159;SDS011;9205;52.032;4.314;2022-08-21T11:52:30;1.83;;;0.60;;
18159;SDS011;9205;52.032;4.314;2022-08-21T11:55:04;1.77;;;0.80;;
18159;SDS011;9205;52.032;4.314;2022-08-21T11:57:40;3.07;;;0.90;;
18159;SDS011;9205;52.032;4.314;2022-08-21T12:00:21;1.43;;;0.77;;
18159;SDS011;9205;52.032;4.314;2022-08-21T12:02:54;2.73;;;0.87;;
18159;SDS011;9205;52.032;4.314;2022-08-21T12:05:33;1.05;;;0.60;;
18159;SDS011;9205;52.032;4.314;2022-08-21T12:08:10;2.13;;;0.70;;
18159;SDS011;9205;52.032;4.314;2022-08-21T12:10:59;0.90;;;0.80;;
18159;SDS011;9205;52.032;4.314;2022-08-21T12:13:32;1.77;;;0.70;;
18159;SDS011;9205;52.032;4.314;2022-08-21T12:16:05;1.85;;;0.60;;
18159;SDS011;9205;52.032;4.314;2022-08-21T12:18:35;1.85;;;0.68;;
18159;SDS011;9205;52.032;4.314;2022-08-21T12:21:15;0.95;;;0.60;;
18159;SDS011;9205;52.032;4.314;2022-08-21T12:23:58;0.98;;;0.60;;
18159;SDS011;9205;52.032;4.314;2022-08-21T12:26:31;1.00;;;0.73;;
18159;SDS011;9205;52.032;4.314;2022-08-21T12:29:07;1.00;;;0.55;;
18159;SDS011;9205;52.032;4.314;2022-08-21T12:34:50;2.42;;;0.80;;
18159;SDS011;9205;52.032;4.314;2022-08-21T12:37:24;0.98;;;0.50;;
18159;SDS011;9205;52.032;4.314;2022-08-21T12:40:04;1.02;;;0.60;;
18159;SDS011;9205;52.032;4.314;2022-08-21T12:42:52;1.15;;;0.60;;
18159;SDS011;9205;52.032;4.314;2022-08-21T12:45:26;3.80;;;0.80;;
18159;SDS011;9205;52.032;4.314;2022-08-21T12:47:58;1.38;;;0.63;;
18159;SDS011;9205;52.032;4.314;2022-08-21T12:50:35;1.77;;;0.70;;
18159;SDS011;9205;52.032;4.314;2022-08-21T12:53:09;2.92;;;0.88;;
18159;SDS011;9205;52.032;4.314;2022-08-21T12:55:49;1.88;;;0.80;;
18159;SDS011;9205;52.032;4.314;2022-08-21T12:58:17;2.22;;;0.75;;
18159;SDS011;9205;52.032;4.314;2022-08-21T13:00:49;3.53;;;0.80;;
18159;SDS011;9205;52.032;4.314;2022-08-21T13:03:21;2.05;;;0.80;;
18159;SDS011;9205;52.032;4.314;2022-08-21T13:05:50;6.53;;;1.42;;
18159;SDS011;9205;52.032;4.314;2022-08-21T13:08:19;3.42;;;0.60;;
18159;SDS011;9205;52.032;4.314;2022-08-21T13:10:56;3.70;;;0.77;;
18159;SDS011;9205;52.032;4.314;2022-08-21T13:13:29;1.42;;;0.60;;
18159;SDS011;9205;52.032;4.314;2022-08-21T13:15:57;1.63;;;0.85;;
18159;SDS011;9205;52.032;4.314;2022-08-21T13:18:29;3.17;;;1.00;;
18159;SDS011;9205;52.032;4.314;2022-08-21T13:21:02;2.65;;;0.98;;
18159;SDS011;9205;52.032;4.314;2022-08-21T13:23:33;1.60;;;0.80;;
18159;SDS011;9205;52.032;4.314;2022-08-21T13:26:11;2.58;;;0.90;;
18159;SDS011;9205;52.032;4.314;2022-08-21T13:28:43;2.45;;;0.93;;
18159;SDS011;9205;52.032;4.314;2022-08-21T13:31:13;1.67;;;1.00;;
18159;SDS011;9205;52.032;4.314;2022-08-21T13:33:51;1.70;;;0.88;;
18159;SDS011;9205;52.032;4.314;2022-08-21T13:36:23;2.65;;;0.98;;
18159;SDS011;9205;52.032;4.314;2022-08-21T13:38:55;1.90;;;0.80;;
18159;SDS011;9205;52.032;4.314;2022-08-21T13:41:25;2.42;;;0.70;;
18159;SDS011;9205;52.032;4.314;2022-08-21T13:43:58;2.63;;;0.88;;
18159;SDS011;9205;52.032;4.314;2022-08-21T13:46:31;1.27;;;0.80;;
18159;SDS011;9205;52.032;4.314;2022-08-21T13:49:03;1.55;;;0.80;;
18159;SDS011;9205;52.032;4.314;2022-08-21T13:51:33;1.40;;;0.82;;
18159;SDS011;9205;52.032;4.314;2022-08-21T13:54:01;4.25;;;1.13;;
18159;SDS011;9205;52.032;4.314;2022-08-21T13:56:43;1.88;;;0.80;;
18159;SDS011;9205;52.032;4.314;2022-08-21T13:59:14;5.70;;;0.90;;
18159;SDS011;9205;52.032;4.314;2022-08-21T14:01:55;2.83;;;1.17;;
18159;SDS011;9205;52.032;4.314;2022-08-21T14:04:29;4.22;;;1.10;;
18159;SDS011;9205;52.032;4.314;2022-08-21T14:07:03;2.97;;;1.20;;
18159;SDS011;9205;52.032;4.314;2022-08-21T14:09:44;3.53;;;1.33;;
18159;SDS011;9205;52.032;4.314;2022-08-21T14:12:15;1.13;;;0.73;;
18159;SDS011;9205;52.032;4.314;2022-08-21T14:14:51;2.73;;;0.93;;
18159;SDS011;9205;52.032;4.314;2022-08-21T14:17:27;5.33;;;1.10;;
18159;SDS011;9205;52.032;4.314;2022-08-21T14:19:57;4.43;;;1.10;;
18159;SDS011;9205;52.032;4.314;2022-08-21T14:22:31;2.13;;;0.97;;
18159;SDS011;9205;52.032;4.314;2022-08-21T14:25:05;6.97;;;1.03;;
18159;SDS011;9205;52.032;4.314;2022-08-21T14:27:43;1.83;;;0.83;;
18159;SDS011;9205;52.032;4.314;2022-08-21T14:30:18;1.57;;;0.90;;
18159;SDS011;9205;52.032;4.314;2022-08-21T14:32:48;2.30;;;1.10;;
18159;SDS011;9205;52.032;4.314;2022-08-21T14:35:16;2.50;;;1.13;;
18159;SDS011;9205;52.032;4.314;2022-08-21T14:37:43;2.50;;;1.00;;
18159;SDS011;9205;52.032;4.314;2022-08-21T14:40:11;1.57;;;1.10;;
18159;SDS011;9205;52.032;4.314;2022-08-21T14:42:40;1.73;;;0.90;;
18159;SDS011;9205;52.032;4.314;2022-08-21T14:45:10;2.37;;;0.90;;
18159;SDS011;9205;52.032;4.314;2022-08-21T14:47:42;1.60;;;0.93;;
18159;SDS011;9205;52.032;4.314;2022-08-21T14:50:13;3.70;;;1.33;;
18159;SDS011;9205;52.032;4.314;2022-08-21T14:52:40;1.10;;;0.87;;
18159;SDS011;9205;52.032;4.314;2022-08-21T14:55:11;4.53;;;1.33;;
18159;SDS011;9205;52.032;4.314;2022-08-21T14:57:46;3.37;;;0.93;;
18159;SDS011;9205;52.032;4.314;2022-08-21T15:00:16;1.87;;;1.03;;
18159;SDS011;9205;52.032;4.314;2022-08-21T15:02:48;5.67;;;1.00;;
18159;SDS011;9205;52.032;4.314;2022-08-21T15:05:19;0.97;;;0.80;;
18159;SDS011;9205;52.032;4.314;2022-08-21T15:07:46;3.80;;;1.17;;
18159;SDS011;9205;52.032;4.314;2022-08-21T15:10:14;3.67;;;1.10;;
18159;SDS011;9205;52.032;4.314;2022-08-21T15:12:41;3.80;;;1.30;;
18159;SDS011;9205;52.032;4.314;2022-08-21T15:15:14;2.70;;;1.17;;
18159;SDS011;9205;52.032;4.314;2022-08-21T15:17:41;1.83;;;1.10;;
18159;SDS011;9205;52.032;4.314;2022-08-21T15:20:09;1.93;;;0.83;;
18159;SDS011;9205;52.032;4.314;2022-08-21T15:22:37;1.77;;;1.10;;
18159;SDS011;9205;52.032;4.314;2022-08-21T15:25:07;3.80;;;1.13;;
18159;SDS011;9205;52.032;4.314;2022-08-21T15:27:35;3.27;;;1.00;;
18159;SDS011;9205;52.032;4.314;2022-08-21T15:30:03;2.83;;;0.93;;
18159;SDS011;9205;52.032;4.314;2022-08-21T15:32:36;3.37;;;0.80;;
18159;SDS011;9205;52.032;4.314;2022-08-21T15:35:04;1.50;;;0.90;;